Karen Andrie — WBS5272 — position and weather

sailwx.info

Track history (hours):
 
Tides and Currents Weather Stations Pressure Air Temp Water Temp Dewpoint Dewpoint Depression Visibility Wind Speed Wind Dir Waves Ship Positions

Karen Andrie

Owner: ANDRIE INC, MUSKEGON, MI. More information available from US FCC via Universal Licensing System and Coast Guard Vessel Documentation Center.

Last reported at 2018-Jul-15 22:05 UTC. Time now 2018-Jul-17 05:46 UTC.
Position N 45°21' W 085°37'.

Length 34 m; draft 5.1 m.

Type: Towing. MMSI: 366937150.

Date/timePositionNaut miles runAvg speedWind from/ knotsBaromVisibWave heightAir tempDewpointWater temp
2018-Jul-15 22:05N 45°21' W 085°37'810.2
2018-Jul-15 21:16N 45°28' W 085°30'310.3
2018-Jul-15 20:59N 45°31' W 085°28'510.3
2018-Jul-15 20:29N 45°35' W 085°24'510.4
2018-Jul-15 20:00N 45°39' W 085°19'510.4
2018-Jul-15 19:30N 45°43' W 085°15'510.1
2018-Jul-15 19:00N 45°46' W 085°09'4 9.0
2018-Jul-15 18:30N 45°50' W 085°07'510.3
2018-Jul-15 18:00N 45°50' W 084°59'510.4
2018-Jul-15 17:30N 45°50' W 084°52'510.2
2018-Jul-15 17:00N 45°49' W 084°44'5 9.9
2018-Jul-15 16:30N 45°47' W 084°38'610.3
2018-Jul-15 15:54N 45°44' W 084°30'2110.0
2018-Jul-15 13:48N 45°37' W 084°02'1310.2
2018-Jul-15 12:32N 45°31' W 083°46'110.2
2018-Jul-15 12:29N 45°31' W 083°45'510.2
2018-Jul-15 12:00N 45°28' W 083°39'510.2
2018-Jul-15 11:30N 45°26' W 083°32'810.2
2018-Jul-15 10:44N 45°22' W 083°23'  
2018-Jul-11 03:07N 45°21' W 083°25'110.4
2018-Jul-11 03:00N 45°22' W 083°26'510.2
2018-Jul-11 02:30N 45°25' W 083°32'510.4
2018-Jul-11 02:00N 45°27' W 083°38'510.2
2018-Jul-11 01:30N 45°29' W 083°45'5 9.9
2018-Jul-11 01:00N 45°32' W 083°51'2610.1
2018-Jul-10 22:27N 45°42' W 084°25'5 9.9
2018-Jul-10 21:57N 45°43' W 084°32'410.0
2018-Jul-10 21:30N 45°46' W 084°37'6 9.9
2018-Jul-10 20:55N 45°49' W 084°44'4 8.7
2018-Jul-10 20:30N 45°49' W 084°49'510.1
2018-Jul-10 20:00N 45°49' W 084°57'510.2
2018-Jul-10 19:30N 45°50' W 085°04'4 8.2
2018-Jul-10 19:00N 45°47' W 085°09'5 9.9
2018-Jul-10 18:30N 45°43' W 085°11'510.2
2018-Jul-10 18:00N 45°38' W 085°16'510.2
2018-Jul-10 17:30N 45°34' W 085°20'510.1
2018-Jul-10 17:00N 45°30' W 085°24'510.1
2018-Jul-10 16:30N 45°26' W 085°29'510.2
2018-Jul-10 16:00N 45°22' W 085°33'510.1
2018-Jul-10 15:30N 45°18' W 085°37'510.2
2018-Jul-10 15:00N 45°14' W 085°42'510.1
2018-Jul-10 14:30N 45°10' W 085°46'510.3
2018-Jul-10 14:00N 45°06' W 085°50'510.2
2018-Jul-10 13:30N 45°02' W 085°55'510.1
2018-Jul-10 13:00N 44°59' W 086°01'  
Track history (hours):
 
Tides and Currents Weather Stations Pressure Air Temp Water Temp Dewpoint Dewpoint Depression Visibility Wind Speed Wind Dir Waves Ship Positions

Karen Andrie

Owner: ANDRIE INC, MUSKEGON, MI. More information available from US FCC via Universal Licensing System and Coast Guard Vessel Documentation Center.

Last reported at 2018-Jul-15 22:05 UTC. Time now 2018-Jul-17 05:46 UTC.
Position N 45°21' W 085°37'.

Length 34 m; draft 5.1 m.

Type: Towing. MMSI: 366937150.

Date/timePositionNaut miles runAvg speedWind from/ knotsBaromVisibWave heightAir tempDewpointWater temp
2018-Jul-15 22:05N 45°21' W 085°37'810.2
2018-Jul-15 21:16N 45°28' W 085°30'310.3
2018-Jul-15 20:59N 45°31' W 085°28'510.3
2018-Jul-15 20:29N 45°35' W 085°24'510.4
2018-Jul-15 20:00N 45°39' W 085°19'510.4
2018-Jul-15 19:30N 45°43' W 085°15'510.1
2018-Jul-15 19:00N 45°46' W 085°09'4 9.0
2018-Jul-15 18:30N 45°50' W 085°07'510.3
2018-Jul-15 18:00N 45°50' W 084°59'510.4
2018-Jul-15 17:30N 45°50' W 084°52'510.2
2018-Jul-15 17:00N 45°49' W 084°44'5 9.9
2018-Jul-15 16:30N 45°47' W 084°38'610.3
2018-Jul-15 15:54N 45°44' W 084°30'2110.0
2018-Jul-15 13:48N 45°37' W 084°02'1310.2
2018-Jul-15 12:32N 45°31' W 083°46'110.2
2018-Jul-15 12:29N 45°31' W 083°45'510.2
2018-Jul-15 12:00N 45°28' W 083°39'510.2
2018-Jul-15 11:30N 45°26' W 083°32'810.2
2018-Jul-15 10:44N 45°22' W 083°23'  
2018-Jul-11 03:07N 45°21' W 083°25'110.4
2018-Jul-11 03:00N 45°22' W 083°26'510.2
2018-Jul-11 02:30N 45°25' W 083°32'510.4
2018-Jul-11 02:00N 45°27' W 083°38'510.2
2018-Jul-11 01:30N 45°29' W 083°45'5 9.9
2018-Jul-11 01:00N 45°32' W 083°51'2610.1
2018-Jul-10 22:27N 45°42' W 084°25'5 9.9
2018-Jul-10 21:57N 45°43' W 084°32'410.0
2018-Jul-10 21:30N 45°46' W 084°37'6 9.9
2018-Jul-10 20:55N 45°49' W 084°44'4 8.7
2018-Jul-10 20:30N 45°49' W 084°49'510.1
2018-Jul-10 20:00N 45°49' W 084°57'510.2
2018-Jul-10 19:30N 45°50' W 085°04'4 8.2
2018-Jul-10 19:00N 45°47' W 085°09'5 9.9
2018-Jul-10 18:30N 45°43' W 085°11'510.2
2018-Jul-10 18:00N 45°38' W 085°16'510.2
2018-Jul-10 17:30N 45°34' W 085°20'510.1
2018-Jul-10 17:00N 45°30' W 085°24'510.1
2018-Jul-10 16:30N 45°26' W 085°29'510.2
2018-Jul-10 16:00N 45°22' W 085°33'510.1
2018-Jul-10 15:30N 45°18' W 085°37'510.2
2018-Jul-10 15:00N 45°14' W 085°42'510.1
2018-Jul-10 14:30N 45°10' W 085°46'510.3
2018-Jul-10 14:00N 45°06' W 085°50'510.2
2018-Jul-10 13:30N 45°02' W 085°55'510.1
2018-Jul-10 13:00N 44°59' W 086°01'  

Dump ship's entire track history